Página principal
METAR-TAF:

METAR-TAF

Aeroportos :

La Gomera, Espanha

latitude: 28-01-47N, longitude: 017-12-53W, altura: 218 m

Observação actual do tempo

O boletim foi feito há 36 minutos, às 16:30 UTC
Vento 5 kt de su-sudoeste, variando entre sudeste e oes-noroeste
Temperatura 22°C
Humidade 65%
Pressão 1019 hPa
Visibilidade 10 km ou mais
Poucas nuvensa uma altura de 3000 ft

METAR: GCGM 181630Z 20005KT 140V290 9999 FEW030 22/15 Q1019 RMK R09/13005KT 090V190 ARP/17004KT 110V210

Hora: 18:06 (17:06 UTC)


TAF: em falta

Observações e previsões do tempo de mais de 4000 aeroportos (mensagens METAR e TAF).

As estações disponíveis são os pontos amarelos e vermelhos sobre o mapa.

Mova o rato sobre o mapa para ver o nome da estação.

Depois clique no ponto para visualizar as observações e previsões meteorológicas.

Para alterar o mapa : clique nos botões verdes com uma cruz preta para aumentar o zoom; no botão verde com uma pitada de zoom; ou nas setas verdes para mapas adjacentes.


METAR-TAF: